Terminal Aerodrome Forecast
Issued by NWS Central Illinois

Home | Current Version | Previous Version | Text Only | Print | Product List | Glossary On
Versions: 1 2 3 4 5 6 7 8 9 10 11 12 13 14 15 16 17 18 19 20 21
248
FTUS43 KILX 281736
TAFSPI
TAF
KSPI 281736Z 2818/2918 32010G18KT P6SM VCSH SCT025 BKN050
     FM282000 31010G18KT P6SM SCT035
     FM290000 28006KT P6SM SKC
     FM291500 27010G18KT P6SM SKC=

USA.gov is the U.S. government's official web portal to all federal, state and local government web resources and services.